sensor_id;sensor_type;location;lat;lon;timestamp;pressure;altitude;pressure_sealevel;temperature;humidity
58622;BME280;44389;51.578;5.456;2023-03-23T00:01:26;100142.41;;;10.49;100.00
58622;BME280;44389;51.578;5.456;2023-03-23T00:03:55;100150.25;;;10.56;100.00
58622;BME280;44389;51.578;5.456;2023-03-23T00:06:23;100155.41;;;10.56;100.00
58622;BME280;44389;51.578;5.456;2023-03-23T00:08:50;100162.28;;;10.57;100.00
58622;BME280;44389;51.578;5.456;2023-03-23T00:11:24;100157.97;;;10.56;100.00
58622;BME280;44389;51.578;5.456;2023-03-23T00:13:52;100141.69;;;10.57;100.00
58622;BME280;44389;51.578;5.456;2023-03-23T00:16:22;100135.56;;;10.51;100.00
58622;BME280;44389;51.578;5.456;2023-03-23T00:18:54;100150.28;;;10.59;100.00
58622;BME280;44389;51.578;5.456;2023-03-23T00:21:21;100166.63;;;10.58;100.00
58622;BME280;44389;51.578;5.456;2023-03-23T00:23:51;100165.75;;;10.59;100.00
58622;BME280;44389;51.578;5.456;2023-03-23T00:26:16;100155.50;;;10.62;100.00
58622;BME280;44389;51.578;5.456;2023-03-23T00:28:42;100154.59;;;10.60;100.00
58622;BME280;44389;51.578;5.456;2023-03-23T00:31:09;100149.41;;;10.57;100.00
58622;BME280;44389;51.578;5.456;2023-03-23T00:33:37;100155.41;;;10.56;100.00
58622;BME280;44389;51.578;5.456;2023-03-23T00:36:09;100158.88;;;10.56;100.00
58622;BME280;44389;51.578;5.456;2023-03-23T00:38:35;100170.03;;;10.57;100.00
58622;BME280;44389;51.578;5.456;2023-03-23T00:41:01;100169.22;;;10.59;100.00
58622;BME280;44389;51.578;5.456;2023-03-23T00:43:30;100168.31;;;10.59;100.00
58622;BME280;44389;51.578;5.456;2023-03-23T00:45:57;100164.06;;;10.59;100.00
58622;BME280;44389;51.578;5.456;2023-03-23T00:48:27;100157.16;;;10.58;100.00
58622;BME280;44389;51.578;5.456;2023-03-23T00:50:53;100148.59;;;10.59;100.00
58622;BME280;44389;51.578;5.456;2023-03-23T00:53:19;100145.94;;;10.54;100.00
58622;BME280;44389;51.578;5.456;2023-03-23T00:55:45;100150.13;;;10.49;100.00
58622;BME280;44389;51.578;5.456;2023-03-23T00:58:12;100143.25;;;10.48;100.00
58622;BME280;44389;51.578;5.456;2023-03-23T01:00:38;100136.19;;;10.38;100.00
58622;BME280;44389;51.578;5.456;2023-03-23T01:03:04;100118.00;;;10.32;100.00
58622;BME280;44389;51.578;5.456;2023-03-23T01:05:33;100111.00;;;10.25;100.00
58622;BME280;44389;51.578;5.456;2023-03-23T01:07:59;100108.34;;;10.20;100.00
58622;BME280;44389;51.578;5.456;2023-03-23T01:10:24;100103.22;;;10.21;100.00
58622;BME280;44389;51.578;5.456;2023-03-23T01:12:52;100112.63;;;10.19;100.00
58622;BME280;44389;51.578;5.456;2023-03-23T01:15:18;100104.00;;;10.17;100.00
58622;BME280;44389;51.578;5.456;2023-03-23T01:17:44;100090.41;;;10.25;100.00
58622;BME280;44389;51.578;5.456;2023-03-23T01:20:11;100075.91;;;10.30;100.00
58622;BME280;44389;51.578;5.456;2023-03-23T01:22:38;100075.91;;;10.31;100.00
58622;BME280;44389;51.578;5.456;2023-03-23T01:25:04;100076.84;;;10.35;100.00
58622;BME280;44389;51.578;5.456;2023-03-23T01:27:29;100085.50;;;10.37;100.00
58622;BME280;44389;51.578;5.456;2023-03-23T01:29:55;100082.97;;;10.38;100.00
58622;BME280;44389;51.578;5.456;2023-03-23T01:32:20;100067.50;;;10.38;100.00
58622;BME280;44389;51.578;5.456;2023-03-23T01:34:46;100077.84;;;10.40;100.00
58622;BME280;44389;51.578;5.456;2023-03-23T01:37:11;100077.03;;;10.44;100.00
58622;BME280;44389;51.578;5.456;2023-03-23T01:39:36;100079.69;;;10.47;100.00
58622;BME280;44389;51.578;5.456;2023-03-23T01:42:03;100072.94;;;10.54;100.00
58622;BME280;44389;51.578;5.456;2023-03-23T01:46:57;100076.47;;;10.61;100.00
58622;BME280;44389;51.578;5.456;2023-03-23T01:49:26;100086.81;;;10.64;100.00
58622;BME280;44389;51.578;5.456;2023-03-23T01:51:55;100085.19;;;10.69;100.00
58622;BME280;44389;51.578;5.456;2023-03-23T01:54:22;100087.00;;;10.75;100.00
58622;BME280;44389;51.578;5.456;2023-03-23T01:56:54;100069.91;;;10.78;100.00
58622;BME280;44389;51.578;5.456;2023-03-23T01:59:21;100075.06;;;10.80;100.00
58622;BME280;44389;51.578;5.456;2023-03-23T02:01:48;100064.78;;;10.83;100.00
58622;BME280;44389;51.578;5.456;2023-03-23T02:04:14;100055.41;;;10.86;100.00
58622;BME280;44389;51.578;5.456;2023-03-23T02:06:41;100044.28;;;10.91;100.00
58622;BME280;44389;51.578;5.456;2023-03-23T02:09:07;100037.44;;;10.91;100.00
58622;BME280;44389;51.578;5.456;2023-03-23T02:11:33;100049.47;;;10.92;100.00
58622;BME280;44389;51.578;5.456;2023-03-23T02:14:00;100046.06;;;10.95;100.00
58622;BME280;44389;51.578;5.456;2023-03-23T02:16:33;100042.66;;;10.97;100.00
58622;BME280;44389;51.578;5.456;2023-03-23T02:19:25;100037.50;;;10.96;100.00
58622;BME280;44389;51.578;5.456;2023-03-23T02:30:49;100035.72;;;10.92;100.00
58622;BME280;44389;51.578;5.456;2023-03-23T02:33:36;100035.75;;;10.93;100.00
58622;BME280;44389;51.578;5.456;2023-03-23T02:36:10;100035.75;;;10.93;100.00
58622;BME280;44389;51.578;5.456;2023-03-23T02:38:47;100033.97;;;10.91;100.00
58622;BME280;44389;51.578;5.456;2023-03-23T02:41:17;100018.63;;;10.97;100.00
58622;BME280;44389;51.578;5.456;2023-03-23T02:43:45;100029.75;;;10.96;100.00
58622;BME280;44389;51.578;5.456;2023-03-23T02:46:12;100028.09;;;10.98;100.00
58622;BME280;44389;51.578;5.456;2023-03-23T02:48:39;100020.34;;;10.96;100.00
58622;BME280;44389;51.578;5.456;2023-03-23T02:51:07;100029.81;;;10.99;100.00
58622;BME280;44389;51.578;5.456;2023-03-23T02:53:37;100040.13;;;10.99;100.00
58622;BME280;44389;51.578;5.456;2023-03-23T02:56:06;100033.25;;;10.98;100.00
58622;BME280;44389;51.578;5.456;2023-03-23T02:58:33;100035.00;;;11.02;100.00
58622;BME280;44389;51.578;5.456;2023-03-23T03:00:58;100025.63;;;11.07;100.00
58622;BME280;44389;51.578;5.456;2023-03-23T03:03:27;100032.53;;;11.08;100.00
58622;BME280;44389;51.578;5.456;2023-03-23T03:06:05;100033.47;;;11.13;100.00
58622;BME280;44389;51.578;5.456;2023-03-23T03:08:45;100026.59;;;11.15;100.00
58622;BME280;44389;51.578;5.456;2023-03-23T03:11:13;100036.16;;;11.21;100.00
58622;BME280;44389;51.578;5.456;2023-03-23T03:21:28;100032.69;;;11.20;100.00
58622;BME280;44389;51.578;5.456;2023-03-23T03:23:57;100034.41;;;11.20;100.00
58622;BME280;44389;51.578;5.456;2023-03-23T03:26:26;100039.56;;;11.20;100.00
58622;BME280;44389;51.578;5.456;2023-03-23T03:28:53;100037.84;;;11.20;100.00
58622;BME280;44389;51.578;5.456;2023-03-23T03:31:22;100038.78;;;11.26;100.00
58622;BME280;44389;51.578;5.456;2023-03-23T03:33:49;100035.34;;;11.27;100.00
58622;BME280;44389;51.578;5.456;2023-03-23T03:36:18;100028.53;;;11.29;100.00
58622;BME280;44389;51.578;5.456;2023-03-23T03:38:48;100034.56;;;11.31;100.00
58622;BME280;44389;51.578;5.456;2023-03-23T03:41:14;100032.88;;;11.33;100.00
58622;BME280;44389;51.578;5.456;2023-03-23T03:43:39;100032.03;;;11.34;100.00
58622;BME280;44389;51.578;5.456;2023-03-23T03:46:05;100042.28;;;11.31;100.00
58622;BME280;44389;51.578;5.456;2023-03-23T03:48:30;100046.59;;;11.32;100.00
58622;BME280;44389;51.578;5.456;2023-03-23T03:50:56;100038.88;;;11.32;100.00
58622;BME280;44389;51.578;5.456;2023-03-23T03:53:24;100038.88;;;11.32;100.00
58622;BME280;44389;51.578;5.456;2023-03-23T03:55:50;100036.34;;;11.35;100.00
58622;BME280;44389;51.578;5.456;2023-03-23T03:58:16;100035.44;;;11.33;100.00
58622;BME280;44389;51.578;5.456;2023-03-23T04:00:42;100050.03;;;11.31;100.00
58622;BME280;44389;51.578;5.456;2023-03-23T04:03:08;100056.00;;;11.27;100.00
58622;BME280;44389;51.578;5.456;2023-03-23T04:05:34;100054.22;;;11.23;100.00
58622;BME280;44389;51.578;5.456;2023-03-23T04:08:02;100057.72;;;11.28;100.00
58622;BME280;44389;51.578;5.456;2023-03-23T04:10:28;100060.34;;;11.31;100.00
58622;BME280;44389;51.578;5.456;2023-03-23T04:12:54;100059.47;;;11.29;100.00
58622;BME280;44389;51.578;5.456;2023-03-23T04:15:21;100049.09;;;11.26;100.00
58622;BME280;44389;51.578;5.456;2023-03-23T04:17:46;100055.97;;;11.24;100.00
58622;BME280;44389;51.578;5.456;2023-03-23T04:20:12;100060.28;;;11.25;100.00
58622;BME280;44389;51.578;5.456;2023-03-23T04:22:44;100053.31;;;11.19;100.00
58622;BME280;44389;51.578;5.456;2023-03-23T04:25:11;100055.91;;;11.20;100.00
58622;BME280;44389;51.578;5.456;2023-03-23T04:27:38;100057.72;;;11.25;100.00
58622;BME280;44389;51.578;5.456;2023-03-23T04:30:04;100059.41;;;11.26;99.42
58622;BME280;44389;51.578;5.456;2023-03-23T04:32:30;100062.88;;;11.25;99.67
58622;BME280;44389;51.578;5.456;2023-03-23T04:34:56;100070.59;;;11.25;99.46
58622;BME280;44389;51.578;5.456;2023-03-23T04:37:24;100065.47;;;11.26;98.57
58622;BME280;44389;51.578;5.456;2023-03-23T04:39:55;100082.72;;;11.30;98.33
58622;BME280;44389;51.578;5.456;2023-03-23T04:42:26;100093.88;;;11.31;98.07
58622;BME280;44389;51.578;5.456;2023-03-23T04:44:52;100080.13;;;11.30;98.12
58622;BME280;44389;51.578;5.456;2023-03-23T04:47:20;100086.03;;;11.23;98.60
58622;BME280;44389;51.578;5.456;2023-03-23T04:49:46;100072.28;;;11.24;98.33
58622;BME280;44389;51.578;5.456;2023-03-23T04:52:11;100084.25;;;11.19;99.08
58622;BME280;44389;51.578;5.456;2023-03-23T04:54:36;100085.16;;;11.19;98.34
58622;BME280;44389;51.578;5.456;2023-03-23T04:57:02;100079.94;;;11.18;98.55
58622;BME280;44389;51.578;5.456;2023-03-23T04:59:28;100081.63;;;11.14;99.15
58622;BME280;44389;51.578;5.456;2023-03-23T05:01:55;100083.34;;;11.15;98.39
58622;BME280;44389;51.578;5.456;2023-03-23T05:04:21;100078.16;;;11.12;98.61
58622;BME280;44389;51.578;5.456;2023-03-23T05:06:47;100079.78;;;11.07;99.66
58622;BME280;44389;51.578;5.456;2023-03-23T05:09:13;100075.53;;;11.09;99.14
58622;BME280;44389;51.578;5.456;2023-03-23T05:11:38;100083.28;;;11.09;99.25
58622;BME280;44389;51.578;5.456;2023-03-23T05:14:05;100061.75;;;11.07;99.68
58622;BME280;44389;51.578;5.456;2023-03-23T05:16:30;100076.31;;;11.05;99.73
58622;BME280;44389;51.578;5.456;2023-03-23T05:18:56;100063.47;;;11.07;99.32
58622;BME280;44389;51.578;5.456;2023-03-23T05:21:22;100071.22;;;11.08;99.30
58622;BME280;44389;51.578;5.456;2023-03-23T05:23:48;100081.53;;;11.08;99.67
58622;BME280;44389;51.578;5.456;2023-03-23T05:26:23;100084.97;;;11.10;99.42
58622;BME280;44389;51.578;5.456;2023-03-23T05:28:54;100078.94;;;11.07;99.96
58622;BME280;44389;51.578;5.456;2023-03-23T05:31:21;100084.94;;;11.07;99.45
58622;BME280;44389;51.578;5.456;2023-03-23T05:33:46;100084.97;;;11.10;98.87
58622;BME280;44389;51.578;5.456;2023-03-23T05:36:12;100088.47;;;11.12;98.83
58622;BME280;44389;51.578;5.456;2023-03-23T05:38:39;100084.16;;;11.13;98.71
58622;BME280;44389;51.578;5.456;2023-03-23T05:41:07;100081.53;;;11.10;99.17
58622;BME280;44389;51.578;5.456;2023-03-23T05:43:33;100089.16;;;11.02;99.95
58622;BME280;44389;51.578;5.456;2023-03-23T05:45:58;100086.63;;;11.05;98.97
58622;BME280;44389;51.578;5.456;2023-03-23T05:48:23;100086.56;;;11.00;99.97
58622;BME280;44389;51.578;5.456;2023-03-23T05:50:49;100096.88;;;10.99;100.00
58622;BME280;44389;51.578;5.456;2023-03-23T05:53:14;100089.09;;;10.97;100.00
58622;BME280;44389;51.578;5.456;2023-03-23T05:55:40;100093.34;;;10.94;100.00
58622;BME280;44389;51.578;5.456;2023-03-23T05:58:06;100091.53;;;10.90;100.00
58622;BME280;44389;51.578;5.456;2023-03-23T06:00:31;100086.38;;;10.90;100.00
58622;BME280;44389;51.578;5.456;2023-03-23T06:02:58;100094.13;;;10.90;100.00
58622;BME280;44389;51.578;5.456;2023-03-23T06:05:23;100094.06;;;10.86;100.00
58622;BME280;44389;51.578;5.456;2023-03-23T06:07:50;100098.31;;;10.84;100.00
58622;BME280;44389;51.578;5.456;2023-03-23T06:10:17;100091.50;;;10.86;100.00
58622;BME280;44389;51.578;5.456;2023-03-23T06:12:42;100100.88;;;10.83;100.00
58622;BME280;44389;51.578;5.456;2023-03-23T06:15:09;100104.28;;;10.80;100.00
58622;BME280;44389;51.578;5.456;2023-03-23T06:17:35;100107.75;;;10.82;100.00
58622;BME280;44389;51.578;5.456;2023-03-23T06:20:02;100122.41;;;10.83;100.00
58622;BME280;44389;51.578;5.456;2023-03-23T06:22:29;100132.75;;;10.86;100.00
58622;BME280;44389;51.578;5.456;2023-03-23T06:24:55;100131.06;;;10.89;100.00
58622;BME280;44389;51.578;5.456;2023-03-23T06:27:22;100139.78;;;10.95;100.00
58622;BME280;44389;51.578;5.456;2023-03-23T06:29:48;100132.97;;;10.99;99.72
58622;BME280;44389;51.578;5.456;2023-03-23T06:32:14;100138.13;;;10.99;99.98
58622;BME280;44389;51.578;5.456;2023-03-23T06:34:40;100149.31;;;11.02;99.16
58622;BME280;44389;51.578;5.456;2023-03-23T06:37:09;100155.38;;;11.03;99.40
58622;BME280;44389;51.578;5.456;2023-03-23T06:39:34;100151.97;;;11.04;99.09
58622;BME280;44389;51.578;5.456;2023-03-23T06:42:01;100157.00;;;10.98;100.00
58622;BME280;44389;51.578;5.456;2023-03-23T06:44:27;100159.38;;;10.87;100.00
58622;BME280;44389;51.578;5.456;2023-03-23T06:46:52;100160.16;;;10.81;100.00
58622;BME280;44389;51.578;5.456;2023-03-23T06:49:17;100171.13;;;10.71;100.00
58622;BME280;44389;51.578;5.456;2023-03-23T06:51:43;100165.00;;;10.63;100.00
58622;BME280;44389;51.578;5.456;2023-03-23T06:54:08;100166.53;;;10.54;100.00
58622;BME280;44389;51.578;5.456;2023-03-23T06:56:34;100174.13;;;10.47;100.00
58622;BME280;44389;51.578;5.456;2023-03-23T06:58:59;100175.81;;;10.45;100.00
58622;BME280;44389;51.578;5.456;2023-03-23T07:01:24;100171.53;;;10.45;100.00
58622;BME280;44389;51.578;5.456;2023-03-23T07:03:50;100176.69;;;10.45;100.00
58622;BME280;44389;51.578;5.456;2023-03-23T07:06:15;100171.53;;;10.45;100.00
58622;BME280;44389;51.578;5.456;2023-03-23T07:08:41;100179.22;;;10.44;100.00
58622;BME280;44389;51.578;5.456;2023-03-23T07:11:06;100171.28;;;10.34;100.00
58622;BME280;44389;51.578;5.456;2023-03-23T07:13:32;100184.91;;;10.29;100.00
58622;BME280;44389;51.578;5.456;2023-03-23T07:15:58;100183.91;;;10.22;100.00
58622;BME280;44389;51.578;5.456;2023-03-23T07:18:24;100191.44;;;10.11;100.00
58622;BME280;44389;51.578;5.456;2023-03-23T07:20:51;100194.66;;;10.01;100.00
58622;BME280;44389;51.578;5.456;2023-03-23T07:23:17;100202.13;;;9.90;100.00
58622;BME280;44389;51.578;5.456;2023-03-23T07:25:44;100198.50;;;9.80;100.00
58622;BME280;44389;51.578;5.456;2023-03-23T07:28:10;100208.63;;;9.72;100.00
58622;BME280;44389;51.578;5.456;2023-03-23T07:30:35;100193.09;;;9.69;100.00
58622;BME280;44389;51.578;5.456;2023-03-23T07:33:04;100194.63;;;9.61;100.00
58622;BME280;44389;51.578;5.456;2023-03-23T07:35:30;100203.91;;;9.54;100.00
58622;BME280;44389;51.578;5.456;2023-03-23T07:37:55;100212.41;;;9.50;100.00
58622;BME280;44389;51.578;5.456;2023-03-23T07:40:20;100220.63;;;9.37;100.00
58622;BME280;44389;51.578;5.456;2023-03-23T07:42:51;100233.88;;;9.17;100.00
58622;BME280;44389;51.578;5.456;2023-03-23T07:45:17;100226.59;;;9.01;100.00
58622;BME280;44389;51.578;5.456;2023-03-23T07:47:42;100215.84;;;8.82;100.00
58622;BME280;44389;51.578;5.456;2023-03-23T07:50:08;100211.94;;;8.65;100.00
58622;BME280;44389;51.578;5.456;2023-03-23T07:52:34;100223.53;;;8.50;100.00
58622;BME280;44389;51.578;5.456;2023-03-23T07:55:00;100231.88;;;8.43;100.00
58622;BME280;44389;51.578;5.456;2023-03-23T07:57:29;100230.81;;;8.36;100.00
58622;BME280;44389;51.578;5.456;2023-03-23T07:59:56;100233.34;;;8.35;100.00
58622;BME280;44389;51.578;5.456;2023-03-23T08:02:23;100238.41;;;8.32;100.00
58622;BME280;44389;51.578;5.456;2023-03-23T08:04:50;100238.41;;;8.32;100.00
58622;BME280;44389;51.578;5.456;2023-03-23T08:07:16;100242.59;;;8.30;100.00
58622;BME280;44389;51.578;5.456;2023-03-23T08:09:43;100229.78;;;8.30;100.00
58622;BME280;44389;51.578;5.456;2023-03-23T08:12:08;100233.25;;;8.32;100.00
58622;BME280;44389;51.578;5.456;2023-03-23T08:14:34;100245.44;;;8.39;100.00
58622;BME280;44389;51.578;5.456;2023-03-23T08:16:59;100250.88;;;8.48;100.00
58622;BME280;44389;51.578;5.456;2023-03-23T08:19:25;100246.00;;;8.57;100.00
58622;BME280;44389;51.578;5.456;2023-03-23T08:21:51;100253.25;;;8.72;100.00
58622;BME280;44389;51.578;5.456;2023-03-23T08:24:17;100245.00;;;8.84;100.00
58622;BME280;44389;51.578;5.456;2023-03-23T08:26:42;100242.56;;;8.89;100.00
58622;BME280;44389;51.578;5.456;2023-03-23T08:29:07;100250.41;;;8.94;100.00
58622;BME280;44389;51.578;5.456;2023-03-23T08:31:33;100266.69;;;8.94;100.00
58622;BME280;44389;51.578;5.456;2023-03-23T08:34:04;100262.34;;;8.92;100.00
58622;BME280;44389;51.578;5.456;2023-03-23T08:36:33;100252.88;;;8.90;100.00
58622;BME280;44389;51.578;5.456;2023-03-23T08:38:59;100246.94;;;8.93;100.00
58622;BME280;44389;51.578;5.456;2023-03-23T08:41:24;100247.84;;;8.94;100.00
58622;BME280;44389;51.578;5.456;2023-03-23T08:43:50;100248.72;;;8.96;100.00
58622;BME280;44389;51.578;5.456;2023-03-23T08:46:17;100248.84;;;8.99;100.00
58622;BME280;44389;51.578;5.456;2023-03-23T08:48:44;100258.25;;;9.00;100.00
58622;BME280;44389;51.578;5.456;2023-03-23T08:51:10;100255.75;;;9.01;100.00
58622;BME280;44389;51.578;5.456;2023-03-23T08:53:36;100254.03;;;9.02;100.00
58622;BME280;44389;51.578;5.456;2023-03-23T08:56:06;100259.34;;;9.08;100.00
58622;BME280;44389;51.578;5.456;2023-03-23T08:58:33;100267.94;;;9.10;100.00
58622;BME280;44389;51.578;5.456;2023-03-23T09:00:59;100267.25;;;9.16;100.00
58622;BME280;44389;51.578;5.456;2023-03-23T09:03:25;100272.50;;;9.20;100.00
58622;BME280;44389;51.578;5.456;2023-03-23T09:05:50;100275.22;;;9.25;100.00
58622;BME280;44389;51.578;5.456;2023-03-23T09:08:15;100266.63;;;9.25;100.00
58622;BME280;44389;51.578;5.456;2023-03-23T09:10:40;100263.19;;;9.26;100.00
58622;BME280;44389;51.578;5.456;2023-03-23T09:13:06;100261.41;;;9.21;100.00
58622;BME280;44389;51.578;5.456;2023-03-23T09:15:31;100247.69;;;9.21;100.00
58622;BME280;44389;51.578;5.456;2023-03-23T09:17:57;100240.13;;;9.27;100.00
58622;BME280;44389;51.578;5.456;2023-03-23T09:20:25;100239.63;;;9.42;100.00
58622;BME280;44389;51.578;5.456;2023-03-23T09:22:53;100259.56;;;9.51;100.00
58622;BME280;44389;51.578;5.456;2023-03-23T09:25:21;100262.97;;;9.50;100.00
58622;BME280;44389;51.578;5.456;2023-03-23T09:27:51;100272.38;;;9.49;100.00
58622;BME280;44389;51.578;5.456;2023-03-23T09:30:29;100258.63;;;9.49;100.00
58622;BME280;44389;51.578;5.456;2023-03-23T09:32:56;100272.59;;;9.59;100.00
58622;BME280;44389;51.578;5.456;2023-03-23T09:35:22;100261.53;;;9.61;100.00
58622;BME280;44389;51.578;5.456;2023-03-23T09:37:49;100266.03;;;9.70;100.00
58622;BME280;44389;51.578;5.456;2023-03-23T09:40:26;100273.47;;;9.96;100.00
58622;BME280;44389;51.578;5.456;2023-03-23T09:43:33;100280.97;;;10.25;100.00
58622;BME280;44389;51.578;5.456;2023-03-23T09:46:30;100281.03;;;10.67;100.00
58622;BME280;44389;51.578;5.456;2023-03-23T09:49:02;100282.59;;;11.05;100.00
58622;BME280;44389;51.578;5.456;2023-03-23T09:51:50;100290.81;;;11.30;100.00
58622;BME280;44389;51.578;5.456;2023-03-23T09:54:21;100284.53;;;11.66;100.00
58622;BME280;44389;51.578;5.456;2023-03-23T09:56:48;100283.41;;;12.04;100.00
58622;BME280;44389;51.578;5.456;2023-03-23T09:59:39;100289.88;;;12.37;97.39
58622;BME280;44389;51.578;5.456;2023-03-23T10:02:16;100298.16;;;12.78;96.23
58622;BME280;44389;51.578;5.456;2023-03-23T10:04:50;100296.59;;;12.91;92.50
58622;BME280;44389;51.578;5.456;2023-03-23T10:07:22;100297.81;;;13.29;90.74
58622;BME280;44389;51.578;5.456;2023-03-23T10:09:51;100306.44;;;13.29;89.01
58622;BME280;44389;51.578;5.456;2023-03-23T10:15:19;100311.50;;;14.17;87.57
58622;BME280;44389;51.578;5.456;2023-03-23T10:20:40;100301.28;;;14.46;83.34
58622;BME280;44389;51.578;5.456;2023-03-23T10:23:44;100305.38;;;14.06;84.18
58622;BME280;44389;51.578;5.456;2023-03-23T10:29:39;100305.66;;;14.60;81.84
58622;BME280;44389;51.578;5.456;2023-03-23T10:31:42;100322.16;;;14.70;78.40
58622;BME280;44389;51.578;5.456;2023-03-23T10:34:16;100318.75;;;14.78;80.32
58622;BME280;44389;51.578;5.456;2023-03-23T10:37:10;100319.31;;;14.28;82.49
58622;BME280;44389;51.578;5.456;2023-03-23T10:39:48;100315.56;;;13.79;82.93
58622;BME280;44389;51.578;5.456;2023-03-23T10:44:53;100312.78;;;13.59;83.44
58622;BME280;44389;51.578;5.456;2023-03-23T10:47:19;100318.84;;;13.60;85.50
58622;BME280;44389;51.578;5.456;2023-03-23T10:49:51;100312.66;;;13.44;83.28
58622;BME280;44389;51.578;5.456;2023-03-23T10:52:34;100311.63;;;13.31;85.23
58622;BME280;44389;51.578;5.456;2023-03-23T10:55:18;100304.28;;;13.76;85.64
58622;BME280;44389;51.578;5.456;2023-03-23T10:58:12;100296.63;;;13.87;84.11
58622;BME280;44389;51.578;5.456;2023-03-23T11:00:43;100303.38;;;13.71;82.52
58622;BME280;44389;51.578;5.456;2023-03-23T11:05:44;100299.59;;;14.53;80.34
58622;BME280;44389;51.578;5.456;2023-03-23T11:08:22;100308.16;;;14.38;79.55
58622;BME280;44389;51.578;5.456;2023-03-23T11:10:57;100309.03;;;14.42;79.12
58622;BME280;44389;51.578;5.456;2023-03-23T11:13:30;100302.41;;;15.06;79.08
58622;BME280;44389;51.578;5.456;2023-03-23T11:15:55;100300.66;;;15.03;74.82
58622;BME280;44389;51.578;5.456;2023-03-23T11:18:24;100307.53;;;14.82;76.08
58622;BME280;44389;51.578;5.456;2023-03-23T11:20:54;100317.94;;;14.98;77.36
58622;BME280;44389;51.578;5.456;2023-03-23T11:23:24;100309.28;;;14.96;75.55
58622;BME280;44389;51.578;5.456;2023-03-23T11:29:05;100316.72;;;14.26;76.58
58622;BME280;44389;51.578;5.456;2023-03-23T11:31:44;100320.50;;;14.84;77.44
58622;BME280;44389;51.578;5.456;2023-03-23T11:34:25;100305.91;;;15.28;72.48
58622;BME280;44389;51.578;5.456;2023-03-23T11:37:02;100320.66;;;15.51;69.94
58622;BME280;44389;51.578;5.456;2023-03-23T11:39:34;100324.06;;;15.20;69.87
58622;BME280;44389;51.578;5.456;2023-03-23T11:42:11;100330.94;;;15.00;71.33
58622;BME280;44389;51.578;5.456;2023-03-23T11:44:41;100310.97;;;14.83;71.23
58622;BME280;44389;51.578;5.456;2023-03-23T11:47:16;100316.75;;;14.32;71.74
58622;BME280;44389;51.578;5.456;2023-03-23T11:49:53;100327.03;;;14.19;74.90
58622;BME280;44389;51.578;5.456;2023-03-23T11:52:31;100330.56;;;14.27;76.04
58622;BME280;44389;51.578;5.456;2023-03-23T11:55:12;100331.59;;;14.60;75.45
58622;BME280;44389;51.578;5.456;2023-03-23T11:57:39;100320.56;;;15.09;74.13
58622;BME280;44389;51.578;5.456;2023-03-23T12:00:23;100321.34;;;14.85;74.37
58622;BME280;44389;51.578;5.456;2023-03-23T12:08:29;100306.72;;;15.13;74.23
58622;BME280;44389;51.578;5.456;2023-03-23T12:11:14;100300.75;;;15.56;73.71
58622;BME280;44389;51.578;5.456;2023-03-23T12:14:07;100291.22;;;15.45;72.76
58622;BME280;44389;51.578;5.456;2023-03-23T12:16:45;100298.94;;;15.13;70.23
58622;BME280;44389;51.578;5.456;2023-03-23T12:22:23;100297.16;;;14.92;70.33
58622;BME280;44389;51.578;5.456;2023-03-23T12:30:35;100311.97;;;15.38;68.67
58622;BME280;44389;51.578;5.456;2023-03-23T12:33:47;100281.69;;;15.60;69.35
58622;BME280;44389;51.578;5.456;2023-03-23T12:36:42;100275.47;;;16.46;67.50
58622;BME280;44389;51.578;5.456;2023-03-23T12:39:33;100284.19;;;16.39;64.19
58622;BME280;44389;51.578;5.456;2023-03-23T12:44:41;100267.75;;;16.26;65.95
58622;BME280;44389;51.578;5.456;2023-03-23T12:53:04;100271.94;;;16.67;67.44
58622;BME280;44389;51.578;5.456;2023-03-23T12:55:39;100259.72;;;16.77;63.83
58622;BME280;44389;51.578;5.456;2023-03-23T12:58:15;100262.47;;;16.44;63.78
58622;BME280;44389;51.578;5.456;2023-03-23T13:00:59;100261.78;;;15.84;65.28
58622;BME280;44389;51.578;5.456;2023-03-23T13:03:32;100263.50;;;15.47;66.30
58622;BME280;44389;51.578;5.456;2023-03-23T13:08:47;100271.28;;;15.88;65.25
58622;BME280;44389;51.578;5.456;2023-03-23T13:11:19;100282.56;;;15.56;66.70
58622;BME280;44389;51.578;5.456;2023-03-23T13:13:52;100280.81;;;15.58;68.03
58622;BME280;44389;51.578;5.456;2023-03-23T13:16:33;100277.28;;;16.22;67.70
58622;BME280;44389;51.578;5.456;2023-03-23T13:19:13;100286.69;;;16.59;65.89
58622;BME280;44389;51.578;5.456;2023-03-23T13:21:50;100278.06;;;16.44;66.88
58622;BME280;44389;51.578;5.456;2023-03-23T13:24:20;100273.84;;;16.22;66.23
58622;BME280;44389;51.578;5.456;2023-03-23T13:26:49;100277.34;;;15.94;65.57
58622;BME280;44389;51.578;5.456;2023-03-23T13:29:18;100289.50;;;15.66;65.16
58622;BME280;44389;51.578;5.456;2023-03-23T13:31:45;100281.69;;;15.44;66.61
58622;BME280;44389;51.578;5.456;2023-03-23T13:34:30;100273.88;;;15.24;67.80
58622;BME280;44389;51.578;5.456;2023-03-23T13:36:58;100279.88;;;14.94;69.49
58622;BME280;44389;51.578;5.456;2023-03-23T13:39:24;100278.16;;;15.02;70.60
58622;BME280;44389;51.578;5.456;2023-03-23T13:52:50;100315.53;;;11.67;100.00
58622;BME280;44389;51.578;5.456;2023-03-23T14:03:19;100312.34;;;10.86;100.00
58622;BME280;44389;51.578;5.456;2023-03-23T14:05:51;100293.50;;;10.89;100.00
58622;BME280;44389;51.578;5.456;2023-03-23T14:13:31;100291.06;;;12.63;100.00
58622;BME280;44389;51.578;5.456;2023-03-23T14:16:00;100274.47;;;13.23;100.00
58622;BME280;44389;51.578;5.456;2023-03-23T14:18:37;100275.31;;;13.22;100.00
58622;BME280;44389;51.578;5.456;2023-03-23T14:21:04;100280.31;;;13.01;100.00
58622;BME280;44389;51.578;5.456;2023-03-23T14:23:32;100270.38;;;13.46;100.00